Time;durP1;ratioP1;P1;durP2;ratioP2;P2;SDS_P1;SDS_P2;PMS_P1;PMS_P2;Temp;Humidity;BMP_temperature;BMP_pressure;BME280_temperature;BME280_humidity;BME280_pressure;Samples;Min_cycle;Max_cycle;Signal;HPM_P1;HPM_P2
2021/11/12 00:12:16;0.00;0.00;0.62;0.00;0.00;0.62;2.17;1.30;;;24.00;28.60;;;;;;2253469;61;20814;-63
2021/11/12 00:14:59;0.00;0.00;0.62;0.00;0.00;0.62;2.17;1.53;;;24.00;28.60;;;;;;2253425;61;20724;-62
2021/11/12 00:17:45;0.00;0.00;0.62;0.00;0.00;0.62;1.73;1.10;;;24.00;28.60;;;;;;2253470;61;20723;-63
2021/11/12 00:20:30;0.00;0.00;0.62;0.00;0.00;0.62;2.30;1.60;;;24.00;28.60;;;;;;2253726;61;20363;-63
2021/11/12 00:23:16;0.00;0.00;0.62;0.00;0.00;0.62;1.90;1.20;;;24.00;28.60;;;;;;2253566;61;20585;-63
2021/11/12 00:26:02;0.00;0.00;0.62;0.00;0.00;0.62;2.40;1.23;;;24.00;28.60;;;;;;2253561;61;20380;-63
2021/11/12 00:28:51;0.00;0.00;0.62;0.00;0.00;0.62;2.03;1.30;;;24.00;28.60;;;;;;2253709;61;20363;-63
2021/11/12 00:37:27;0.00;0.00;0.62;0.00;0.00;0.62;2.07;1.23;;;24.00;28.60;;;;;;2253396;61;20372;-63
2021/11/12 00:43:33;0.00;0.00;0.62;0.00;0.00;0.62;1.30;1.00;;;24.00;28.70;;;;;;2249956;61;20537;-64
2021/11/12 00:49:10;0.00;0.00;0.62;0.00;0.00;0.62;2.00;1.10;;;24.00;28.60;;;;;;2253548;61;20395;-63
2021/11/12 00:52:00;0.00;0.00;0.62;0.00;0.00;0.62;2.30;1.40;;;24.00;28.60;;;;;;2253401;61;20492;-63
2021/11/12 00:54:44;0.00;0.00;0.62;0.00;0.00;0.62;1.80;1.30;;;23.90;28.60;;;;;;2253363;61;20619;-63
2021/11/12 00:57:29;0.00;0.00;0.62;0.00;0.00;0.62;2.63;1.50;;;24.00;28.60;;;;;;2253625;61;20360;-63
2021/11/12 01:00:17;0.00;0.00;0.62;0.00;0.00;0.62;2.57;1.50;;;24.00;28.60;;;;;;2253461;61;20435;-63
2021/11/12 01:03:02;0.00;0.00;0.62;0.00;0.00;0.62;1.73;1.20;;;24.00;28.60;;;;;;2253258;61;20387;-62
2021/11/12 01:05:46;0.00;0.00;0.62;0.00;0.00;0.62;3.00;1.20;;;24.00;28.60;;;;;;2253592;61;20352;-64
2021/11/12 01:08:31;0.00;0.00;0.62;0.00;0.00;0.62;1.77;1.30;;;24.00;28.60;;;;;;2253768;61;20428;-63
2021/11/12 01:11:18;0.00;0.00;0.62;0.00;0.00;0.62;1.93;1.23;;;24.00;28.60;;;;;;2253297;61;20407;-64
2021/11/12 01:14:04;0.00;0.00;0.62;0.00;0.00;0.62;1.60;1.30;;;24.00;28.60;;;;;;2253145;61;20359;-63
2021/11/12 01:16:51;0.00;0.00;0.62;0.00;0.00;0.62;1.87;1.13;;;24.00;28.60;;;;;;2253483;61;20355;-63
2021/11/12 01:19:37;0.00;0.00;0.62;0.00;0.00;0.62;1.70;1.10;;;24.00;28.60;;;;;;2253522;61;20392;-63
2021/11/12 01:22:22;0.00;0.00;0.62;0.00;0.00;0.62;1.90;1.27;;;24.00;28.60;;;;;;2253190;61;20471;-63
2021/11/12 01:25:11;0.00;0.00;0.62;0.00;0.00;0.62;2.60;1.30;;;24.00;28.60;;;;;;2253491;61;20723;-63
2021/11/12 01:27:56;0.00;0.00;0.62;0.00;0.00;0.62;1.83;1.00;;;24.00;28.60;;;;;;2253425;61;20724;-63
2021/11/12 01:30:40;0.00;0.00;0.62;0.00;0.00;0.62;1.50;0.97;;;23.90;28.60;;;;;;2250663;61;20359;-63
2021/11/12 01:33:27;0.00;0.00;0.62;0.00;0.00;0.62;2.17;1.20;;;24.00;28.70;;;;;;2253386;61;20417;-62
2021/11/12 01:39:15;0.00;0.00;0.62;0.00;0.00;0.62;1.90;1.40;;;24.00;28.70;;;;;;2250024;61;20392;-64
2021/11/12 01:42:00;0.00;0.00;0.62;0.00;0.00;0.62;1.70;1.20;;;24.00;28.70;;;;;;2253259;61;20798;-65
2021/11/12 01:44:50;0.00;0.00;0.62;0.00;0.00;0.62;2.53;1.10;;;23.90;28.70;;;;;;2253770;61;20407;-65
2021/11/12 01:47:57;0.00;0.00;0.62;0.00;0.00;0.62;1.63;1.20;;;23.90;28.60;;;;;;2253998;61;20414;-65
2021/11/12 01:50:46;0.00;0.00;0.62;0.00;0.00;0.62;4.47;1.20;;;23.90;28.60;;;;;;2253644;61;20398;-63
2021/11/12 01:53:47;0.00;0.00;0.62;0.00;0.00;0.62;2.50;1.87;;;24.00;28.70;;;;;;2250961;61;20387;-63
2021/11/12 01:59:25;0.00;0.00;0.62;0.00;0.00;0.62;3.40;2.83;;;24.00;28.70;;;;;;2253845;61;20384;-65
2021/11/12 02:02:10;0.00;0.00;0.62;0.00;0.00;0.62;4.73;3.77;;;23.90;28.60;;;;;;2253719;61;20383;-64
2021/11/12 02:04:55;0.00;0.00;0.62;0.00;0.00;0.62;5.10;3.70;;;24.00;28.60;;;;;;2253949;61;20442;-64
2021/11/12 02:07:42;0.00;0.00;0.62;0.00;0.00;0.62;5.40;4.50;;;23.90;28.60;;;;;;2254175;61;20365;-66
2021/11/12 02:10:30;0.00;0.00;0.62;0.00;0.00;0.62;7.43;4.30;;;23.90;28.50;;;;;;2253966;61;20727;-65
2021/11/12 02:13:18;0.00;0.00;0.62;0.00;0.00;0.62;5.03;3.70;;;23.90;28.50;;;;;;2250390;61;20720;-65
2021/11/12 02:16:06;0.00;0.00;0.62;0.00;0.00;0.62;7.13;5.40;;;23.90;28.50;;;;;;2253872;61;20708;-65
2021/11/12 02:18:51;0.00;0.00;0.62;0.00;0.00;0.62;4.97;4.13;;;23.90;28.50;;;;;;2253823;61;20427;-65
2021/11/12 02:21:59;0.00;0.00;0.62;0.00;0.00;0.62;7.13;5.57;;;23.90;28.50;;;;;;2253716;61;20415;-65
2021/11/12 02:24:57;0.00;0.00;0.62;0.00;0.00;0.62;6.07;5.47;;;23.90;28.50;;;;;;2253670;61;20363;-65
2021/11/12 02:27:52;0.00;0.00;0.62;0.00;0.00;0.62;6.13;5.30;;;23.90;29.00;;;;;;2253534;61;20363;-65
2021/11/12 02:30:37;0.00;0.00;0.62;0.00;0.00;0.62;7.47;5.33;;;23.90;28.40;;;;;;2253729;61;20355;-65
2021/11/12 02:33:25;0.00;0.00;0.62;0.00;0.00;0.62;7.80;6.10;;;23.90;28.40;;;;;;2254039;61;20380;-65
2021/11/12 02:36:14;0.00;0.00;0.62;0.00;0.00;0.62;7.33;5.57;;;23.80;28.40;;;;;;2253897;61;20727;-65
2021/11/12 02:39:02;0.00;0.00;0.62;0.00;0.00;0.62;6.63;5.80;;;23.90;28.40;;;;;;2253837;61;20434;-65
2021/11/12 02:41:47;0.00;0.00;0.62;0.00;0.00;0.62;7.90;5.77;;;23.80;28.90;;;;;;2253839;61;20391;-65
2021/11/12 02:44:34;0.00;0.00;0.62;0.00;0.00;0.62;7.43;6.00;;;23.80;28.30;;;;;;2254002;61;20363;-64
2021/11/12 02:47:20;0.00;0.00;0.62;0.00;0.00;0.62;7.30;5.73;;;23.80;28.30;;;;;;2253711;61;20420;-65
2021/11/12 02:50:06;0.00;0.00;0.62;0.00;0.00;0.62;8.43;5.93;;;23.80;28.30;;;;;;2253519;61;20456;-64
2021/11/12 02:52:57;0.00;0.00;0.62;0.00;0.00;0.62;7.03;5.83;;;23.80;28.30;;;;;;2253576;61;20380;-64
2021/11/12 02:55:44;0.00;0.00;0.62;0.00;0.00;0.62;6.23;5.17;;;23.70;28.30;;;;;;2253844;61;20348;-65
2021/11/12 02:58:31;0.00;0.00;0.62;0.00;0.00;0.62;6.00;5.40;;;23.80;28.30;;;;;;2253625;61;20710;-64
2021/11/12 03:01:15;0.00;0.00;0.62;0.00;0.00;0.62;8.30;5.57;;;23.80;28.30;;;;;;2253607;61;20380;-65
2021/11/12 03:04:01;0.00;0.00;0.62;0.00;0.00;0.62;7.23;6.53;;;23.70;28.20;;;;;;2253713;61;20379;-65
2021/11/12 03:06:47;0.00;0.00;0.62;0.00;0.00;0.62;9.00;7.10;;;23.70;28.20;;;;;;2254061;61;20452;-65
2021/11/12 03:09:34;0.00;0.00;0.62;0.00;0.00;0.62;7.70;6.30;;;23.70;28.20;;;;;;2253704;61;20735;-65
2021/11/12 03:12:21;0.00;0.00;0.62;0.00;0.00;0.62;9.10;7.00;;;23.70;28.20;;;;;;2253128;61;20740;-65
2021/11/12 03:15:07;0.00;0.00;0.62;0.00;0.00;0.62;7.27;6.53;;;23.70;28.20;;;;;;2253614;61;20367;-65
2021/11/12 03:17:58;0.00;0.00;0.62;0.00;0.00;0.62;7.33;5.80;;;23.70;28.20;;;;;;2253850;61;20419;-65
2021/11/12 03:20:43;0.00;0.00;0.62;0.00;0.00;0.62;9.60;7.10;;;23.60;28.20;;;;;;2253594;61;20611;-65
2021/11/12 03:23:48;0.00;0.00;0.62;0.00;0.00;0.62;7.90;5.97;;;23.60;28.20;;;;;;2253493;61;20423;-65
2021/11/12 03:26:45;0.00;0.00;0.62;0.00;0.00;0.62;7.87;5.70;;;23.60;28.20;;;;;;2253270;61;20360;-65
2021/11/12 04:03:11;0.00;0.00;0.62;0.00;0.00;0.62;9.47;7.30;;;23.40;28.10;;;;;;2253379;61;20392;-64
2021/11/12 04:18:12;0.00;0.00;0.62;0.00;0.00;0.62;6.80;6.10;;;23.30;28.00;;;;;;2253517;61;20407;-64
2021/11/12 05:46:36;0.00;0.00;0.62;0.00;0.00;0.62;8.60;7.17;;;22.70;27.80;;;;;;2253888;61;20399;-64
2021/11/12 05:55:36;0.00;0.00;0.62;0.00;0.00;0.62;8.30;6.27;;;22.70;27.80;;;;;;2252008;61;20380;-64
2021/11/12 05:58:21;0.00;0.00;0.62;0.00;0.00;0.62;6.77;6.10;;;22.70;27.90;;;;;;2253952;61;20645;-65
2021/11/12 06:01:06;0.00;0.00;0.62;0.00;0.00;0.62;6.60;5.50;;;22.70;27.90;;;;;;2254042;61;20378;-64
2021/11/12 06:03:50;0.00;0.00;0.62;0.00;0.00;0.62;5.97;5.37;;;22.60;27.80;;;;;;2250892;61;20364;-64
2021/11/12 06:06:35;0.00;0.00;0.62;0.00;0.00;0.62;9.10;7.57;;;22.60;27.80;;;;;;2254136;61;20576;-65
2021/11/12 06:09:21;0.00;0.00;0.62;0.00;0.00;0.62;7.60;6.70;;;22.60;27.80;;;;;;2253642;61;20395;-61
2021/11/12 06:12:11;0.00;0.00;0.62;0.00;0.00;0.62;7.37;6.57;;;22.60;27.80;;;;;;2254308;61;20391;-65
2021/11/12 06:14:56;0.00;0.00;0.62;0.00;0.00;0.62;7.07;6.37;;;22.60;27.90;;;;;;2254202;61;20441;-62
2021/11/12 06:17:42;0.00;0.00;0.62;0.00;0.00;0.62;5.97;5.43;;;22.60;27.90;;;;;;2250558;61;20367;-61
2021/11/12 06:20:27;0.00;0.00;0.62;0.00;0.00;0.62;6.80;6.10;;;22.60;27.90;;;;;;2253944;61;20383;-65
2021/11/12 06:23:12;0.00;0.00;0.62;0.00;0.00;0.62;5.90;5.27;;;22.60;27.90;;;;;;2253879;61;20807;-65
2021/11/12 06:25:58;0.00;0.00;0.62;0.00;0.00;0.62;6.10;5.50;;;22.60;27.90;;;;;;2253979;61;20360;-62
2021/11/12 06:28:43;0.00;0.00;0.62;0.00;0.00;0.62;6.20;5.60;;;22.60;27.90;;;;;;2253954;61;20367;-64
2021/11/12 06:31:27;0.00;0.00;0.62;0.00;0.00;0.62;6.00;5.20;;;22.50;27.80;;;;;;2253775;61;20460;-61
2021/11/12 06:34:12;0.00;0.00;0.62;0.00;0.00;0.62;5.77;5.20;;;22.60;27.90;;;;;;2254242;61;20747;-62
2021/11/12 06:36:57;0.00;0.00;0.62;0.00;0.00;0.62;6.37;5.77;;;22.50;27.80;;;;;;2254102;61;20352;-62
2021/11/12 06:39:41;0.00;0.00;0.62;0.00;0.00;0.62;6.30;5.57;;;22.50;27.80;;;;;;2253709;61;20454;-61
2021/11/12 06:42:30;0.00;0.00;0.62;0.00;0.00;0.62;5.87;5.33;;;22.50;27.90;;;;;;2253736;61;20446;-64
2021/11/12 06:51:13;0.00;0.00;0.62;0.00;0.00;0.62;6.40;5.80;;;22.50;27.90;;;;;;2253726;61;20403;-64
2021/11/12 06:53:58;0.00;0.00;0.62;0.00;0.00;0.62;5.80;5.20;;;22.50;27.90;;;;;;2250615;61;20364;-64
2021/11/12 06:56:44;0.00;0.00;0.62;0.00;0.00;0.62;5.93;4.83;;;22.50;27.90;;;;;;2254144;61;20641;-64
2021/11/12 06:59:30;0.00;0.00;0.62;0.00;0.00;0.62;5.30;4.40;;;22.50;27.90;;;;;;2254070;61;20379;-65
2021/11/12 07:02:17;0.00;0.00;0.62;0.00;0.00;0.62;5.87;5.03;;;22.50;27.90;;;;;;2253737;61;20391;-64
2021/11/12 07:05:02;0.00;0.00;0.62;0.00;0.00;0.62;5.40;4.90;;;22.40;27.80;;;;;;2253950;61;20363;-64
2021/11/12 07:07:48;0.00;0.00;0.62;0.00;0.00;0.62;6.33;5.60;;;22.40;27.90;;;;;;2253861;61;20371;-64
2021/11/12 07:10:33;0.00;0.00;0.62;0.00;0.00;0.62;6.80;5.60;;;22.40;27.90;;;;;;2254017;61;21000;-64
2021/11/12 07:13:23;0.00;0.00;0.62;0.00;0.00;0.62;4.97;4.47;;;22.40;27.90;;;;;;2253612;61;20464;-64
2021/11/12 07:16:09;0.00;0.00;0.62;0.00;0.00;0.62;6.57;5.17;;;22.40;27.90;;;;;;2253677;61;20775;-64
2021/11/12 07:18:56;0.00;0.00;0.62;0.00;0.00;0.62;6.93;5.93;;;22.40;27.90;;;;;;2254040;61;20512;-64
2021/11/12 07:21:42;0.00;0.00;0.62;0.00;0.00;0.62;6.10;5.50;;;22.40;27.90;;;;;;2254045;61;20395;-64
2021/11/12 07:24:28;0.00;0.00;0.62;0.00;0.00;0.62;5.60;5.00;;;22.40;28.40;;;;;;2250548;61;20768;-64
2021/11/12 07:27:13;0.00;0.00;0.62;0.00;0.00;0.62;7.03;5.10;;;22.40;27.90;;;;;;2253619;61;20396;-64
2021/11/12 07:29:57;0.00;0.00;0.62;0.00;0.00;0.62;6.70;5.57;;;22.40;27.90;;;;;;2254094;61;20359;-64
2021/11/12 07:32:44;0.00;0.00;0.62;0.00;0.00;0.62;7.07;5.50;;;22.40;28.00;;;;;;2253678;61;20380;-64
2021/11/12 07:35:33;0.00;0.00;0.62;0.00;0.00;0.62;7.30;6.50;;;22.30;27.90;;;;;;2253745;61;20356;-64
2021/11/12 07:38:25;0.00;0.00;0.62;0.00;0.00;0.62;6.40;5.70;;;22.30;27.90;;;;;;2253482;61;20360;-64
2021/11/12 07:44:17;0.00;0.00;0.62;0.00;0.00;0.62;6.00;5.40;;;22.30;27.90;;;;;;2254039;61;20395;-64
2021/11/12 07:47:13;0.00;0.00;0.62;0.00;0.00;0.62;7.53;6.00;;;22.30;27.90;;;;;;2253881;61;20568;-65
2021/11/12 07:50:01;0.00;0.00;0.62;0.00;0.00;0.62;6.40;5.80;;;22.30;28.00;;;;;;2253725;61;20368;-64
2021/11/12 07:52:46;0.00;0.00;0.62;0.00;0.00;0.62;6.40;5.73;;;22.30;28.00;;;;;;2250638;61;20608;-64
2021/11/12 07:55:31;0.00;0.00;0.62;0.00;0.00;0.62;7.17;6.47;;;22.30;28.00;;;;;;2253855;61;20368;-64
2021/11/12 07:58:15;0.00;0.00;0.62;0.00;0.00;0.62;8.00;7.20;;;22.30;28.00;;;;;;2253582;61;20415;-65
2021/11/12 08:01:00;0.00;0.00;0.62;0.00;0.00;0.62;6.00;5.40;;;22.30;28.00;;;;;;2253316;61;20380;-69
2021/11/12 08:03:49;0.00;0.00;0.62;0.00;0.00;0.62;7.73;6.93;;;22.30;28.00;;;;;;2253640;61;20360;-63
2021/11/12 08:06:36;0.00;0.00;0.62;0.00;0.00;0.62;6.97;6.30;;;22.30;28.00;;;;;;2253651;61;20359;-69
2021/11/12 08:09:23;0.00;0.00;0.62;0.00;0.00;0.62;7.17;6.20;;;22.30;28.00;;;;;;2253531;61;20480;-67
2021/11/12 08:12:11;0.00;0.00;0.62;0.00;0.00;0.62;6.50;5.90;;;22.30;28.10;;;;;;2253260;61;20630;-65
2021/11/12 08:18:21;0.00;0.00;0.62;0.00;0.00;0.62;6.13;5.53;;;22.30;28.20;;;;;;2251894;61;20376;-66
2021/11/12 08:21:10;0.00;0.00;0.62;0.00;0.00;0.62;6.40;5.17;;;22.30;28.20;;;;;;2253975;61;20364;-68
2021/11/12 08:24:11;0.00;0.00;0.62;0.00;0.00;0.62;7.17;5.40;;;22.30;28.20;;;;;;2253477;61;20356;-67
2021/11/12 08:27:04;0.00;0.00;0.62;0.00;0.00;0.62;5.37;4.70;;;22.30;28.20;;;;;;2250206;61;20375;-67
2021/11/12 08:35:42;0.00;0.00;0.62;0.00;0.00;0.62;7.40;5.87;;;22.30;28.20;;;;;;2253617;61;20388;-65
2021/11/12 08:38:40;0.00;0.00;0.62;0.00;0.00;0.62;5.53;4.93;;;22.30;28.20;;;;;;2253322;61;20352;-67
2021/11/12 08:41:43;0.00;0.00;0.62;0.00;0.00;0.62;4.80;4.30;;;22.30;28.20;;;;;;2253193;61;20509;-71
2021/11/12 08:44:41;0.00;0.00;0.62;0.00;0.00;0.62;5.63;4.90;;;22.30;28.20;;;;;;2253423;61;20359;-61
2021/11/12 08:47:30;0.00;0.00;0.62;0.00;0.00;0.62;5.30;4.70;;;22.30;28.20;;;;;;2250656;61;20359;-65
2021/11/12 08:50:21;0.00;0.00;0.62;0.00;0.00;0.62;4.43;4.03;;;22.20;28.10;;;;;;2253439;61;20351;-63
2021/11/12 08:53:12;0.00;0.00;0.62;0.00;0.00;0.62;6.50;4.40;;;22.20;28.10;;;;;;2253050;61;20832;-64
2021/11/12 08:55:56;0.00;0.00;0.62;0.00;0.00;0.62;4.80;4.30;;;22.30;28.20;;;;;;2253380;61;20355;-63
2021/11/12 08:58:48;0.00;0.00;0.62;0.00;0.00;0.62;5.13;4.63;;;22.30;28.20;;;;;;2253372;61;20433;-63
2021/11/12 09:01:34;0.00;0.00;0.62;0.00;0.00;0.62;4.10;3.70;;;22.30;28.20;;;;;;2253350;61;20368;-64
2021/11/12 09:04:19;0.00;0.00;0.62;0.00;0.00;0.62;3.40;3.10;;;22.30;28.20;;;;;;2253188;61;20368;-66
2021/11/12 09:07:04;0.00;0.00;0.62;0.00;0.00;0.62;4.87;3.97;;;22.30;28.20;;;;;;2253004;61;20360;-63
2021/11/12 09:09:54;0.00;0.00;0.62;0.00;0.00;0.62;3.77;3.37;;;22.30;28.20;;;;;;2253869;61;20370;-63
2021/11/12 09:12:41;0.00;0.00;0.62;0.00;0.00;0.62;3.97;2.80;;;22.30;28.20;;;;;;2253406;61;20431;-62
2021/11/12 09:15:32;0.00;0.00;0.62;0.00;0.00;0.62;3.50;2.90;;;22.30;28.20;;;;;;2253335;61;20364;-63
2021/11/12 09:18:19;0.00;0.00;0.62;0.00;0.00;0.62;3.33;3.03;;;22.20;28.10;;;;;;2253371;61;20368;-61
2021/11/12 09:21:04;0.00;0.00;0.62;0.00;0.00;0.62;5.23;2.93;;;22.20;28.10;;;;;;2253251;61;20391;-61
2021/11/12 09:23:49;0.00;0.00;0.62;0.00;0.00;0.62;3.70;2.90;;;22.20;28.10;;;;;;2253469;61;20419;-63
2021/11/12 09:26:34;0.00;0.00;0.62;0.00;0.00;0.62;4.37;2.60;;;22.20;28.10;;;;;;2253220;61;20712;-63
2021/11/12 09:29:19;0.00;0.00;0.62;0.00;0.00;0.62;2.50;2.03;;;22.20;28.10;;;;;;2250053;61;20359;-63
2021/11/12 09:32:08;0.00;0.00;0.62;0.00;0.00;0.62;2.60;2.10;;;22.20;28.10;;;;;;2253649;61;20597;-63
2021/11/12 09:34:52;0.00;0.00;0.62;0.00;0.00;0.62;2.80;2.00;;;22.20;28.10;;;;;;2253584;61;20368;-63
2021/11/12 09:37:37;0.00;0.00;0.62;0.00;0.00;0.62;2.40;2.00;;;22.20;28.10;;;;;;2249990;61;20406;-63
2021/11/12 09:40:21;0.00;0.00;0.62;0.00;0.00;0.62;1.93;1.60;;;22.20;28.10;;;;;;2253225;61;20432;-63
2021/11/12 09:43:06;0.00;0.00;0.62;0.00;0.00;0.62;2.57;1.90;;;22.20;28.10;;;;;;2253295;61;20456;-68
2021/11/12 09:45:51;0.00;0.00;0.62;0.00;0.00;0.62;1.70;1.30;;;22.10;28.10;;;;;;2253404;61;20583;-67
2021/11/12 09:48:38;0.00;0.00;0.62;0.00;0.00;0.62;2.10;1.90;;;22.10;28.10;;;;;;2253176;61;20387;-66
2021/11/12 09:51:23;0.00;0.00;0.62;0.00;0.00;0.62;2.97;1.90;;;22.10;28.10;;;;;;2252777;61;20359;-65
2021/11/12 09:54:07;0.00;0.00;0.62;0.00;0.00;0.62;1.70;1.30;;;22.10;28.10;;;;;;2253568;61;20828;-66
2021/11/12 09:56:52;0.00;0.00;0.62;0.00;0.00;0.62;2.20;1.63;;;22.10;28.10;;;;;;2253337;61;20407;-69
2021/11/12 09:59:36;0.00;0.00;0.62;0.00;0.00;0.62;2.27;1.30;;;22.10;28.10;;;;;;2253123;61;20807;-68
2021/11/12 10:02:21;0.00;0.00;0.62;0.00;0.00;0.62;2.07;1.40;;;22.10;28.10;;;;;;2252985;61;20384;-64
2021/11/12 10:05:12;0.00;0.00;0.62;0.00;0.00;0.62;1.90;1.60;;;22.10;28.10;;;;;;2253662;61;20411;-62
2021/11/12 10:07:57;0.00;0.00;0.62;0.00;0.00;0.62;1.80;1.33;;;22.10;28.10;;;;;;2253955;61;20367;-62
2021/11/12 10:10:46;0.00;0.00;0.62;0.00;0.00;0.62;1.90;1.40;;;22.20;28.10;;;;;;2253832;61;20440;-69
2021/11/12 10:13:33;0.00;0.00;0.62;0.00;0.00;0.62;1.70;1.40;;;22.10;28.10;;;;;;2253523;61;20395;-65
2021/11/12 10:19:12;0.00;0.00;0.62;0.00;0.00;0.62;2.77;1.40;;;22.10;28.10;;;;;;2253963;61;20411;-64
2021/11/12 10:22:02;0.00;0.00;0.62;0.00;0.00;0.62;1.87;1.33;;;22.10;28.10;;;;;;2250281;61;20763;-66
2021/11/12 10:24:46;0.00;0.00;0.62;0.00;0.00;0.62;2.20;1.43;;;22.20;28.70;;;;;;2253751;61;20380;-66
2021/11/12 10:27:34;0.00;0.00;0.62;0.00;0.00;0.62;1.90;1.20;;;22.20;28.10;;;;;;2253840;61;20387;-66
2021/11/12 10:30:23;0.00;0.00;0.62;0.00;0.00;0.62;1.50;1.00;;;22.20;28.20;;;;;;2253828;61;20363;-67
2021/11/12 10:33:08;0.00;0.00;0.62;0.00;0.00;0.62;1.80;1.17;;;22.20;28.30;;;;;;2253562;61;20455;-66
2021/11/12 10:35:52;0.00;0.00;0.62;0.00;0.00;0.62;1.70;1.10;;;22.30;28.30;;;;;;2253535;61;20355;-66
2021/11/12 10:38:42;0.00;0.00;0.62;0.00;0.00;0.62;1.50;1.07;;;22.30;28.30;;;;;;2254158;61;20572;-66
2021/11/12 10:41:29;0.00;0.00;0.62;0.00;0.00;0.62;5.20;1.57;;;22.40;28.30;;;;;;2254101;61;20368;-65
2021/11/12 10:44:14;0.00;0.00;0.62;0.00;0.00;0.62;1.70;1.33;;;22.40;28.30;;;;;;2253122;61;20447;-66
2021/11/12 10:47:04;0.00;0.00;0.62;0.00;0.00;0.62;1.90;1.30;;;22.50;28.40;;;;;;2250583;61;20407;-63
2021/11/12 10:49:53;0.00;0.00;0.62;0.00;0.00;0.62;2.23;1.30;;;22.50;28.50;;;;;;2253946;61;20383;-67
2021/11/12 10:52:38;0.00;0.00;0.62;0.00;0.00;0.62;1.37;0.90;;;22.50;28.50;;;;;;2250377;61;20384;-66
2021/11/12 10:55:25;0.00;0.00;0.62;0.00;0.00;0.62;1.73;1.07;;;22.60;28.60;;;;;;2253675;61;20411;-70
2021/11/12 10:58:12;0.00;0.00;0.62;0.00;0.00;0.62;1.50;1.07;;;22.70;28.70;;;;;;2253449;61;20503;-66
2021/11/12 11:00:56;0.00;0.00;0.62;0.00;0.00;0.62;1.87;1.23;;;22.70;28.60;;;;;;2254003;61;20388;-66
2021/11/12 11:03:41;0.00;0.00;0.62;0.00;0.00;0.62;1.50;1.10;;;22.80;28.60;;;;;;2254200;61;20502;-67
2021/11/12 11:06:25;0.00;0.00;0.62;0.00;0.00;0.62;1.90;1.20;;;22.80;28.50;;;;;;2250332;61;20724;-66
2021/11/12 11:09:10;0.00;0.00;0.62;0.00;0.00;0.62;2.10;1.40;;;22.90;28.60;;;;;;2250566;61;20358;-67
2021/11/12 11:11:56;0.00;0.00;0.62;0.00;0.00;0.62;1.63;1.00;;;22.90;28.60;;;;;;2250712;61;20411;-66
2021/11/12 11:14:40;0.00;0.00;0.62;0.00;0.00;0.62;2.20;1.20;;;23.00;28.70;;;;;;2253774;61;20372;-68
2021/11/12 11:17:26;0.00;0.00;0.62;0.00;0.00;0.62;2.00;1.50;;;23.00;28.70;;;;;;2253674;61;20399;-65
2021/11/12 11:20:16;0.00;0.00;0.62;0.00;0.00;0.62;1.70;1.53;;;23.00;28.70;;;;;;2253409;61;20434;-65
2021/11/12 11:23:02;0.00;0.00;0.62;0.00;0.00;0.62;2.73;1.53;;;23.10;28.80;;;;;;2253983;61;20683;-67
2021/11/12 11:25:55;0.00;0.00;0.62;0.00;0.00;0.62;2.63;2.20;;;23.10;28.80;;;;;;2254043;61;20375;-66
2021/11/12 11:28:42;0.00;0.00;0.62;0.00;0.00;0.62;3.67;2.30;;;23.20;28.80;;;;;;2250457;61;20363;-65
2021/11/12 11:31:29;0.00;0.00;0.62;0.00;0.00;0.62;3.53;2.20;;;23.20;28.80;;;;;;2253588;61;20356;-66
2021/11/12 11:34:13;0.00;0.00;0.62;0.00;0.00;0.62;2.90;2.20;;;23.20;28.80;;;;;;2253602;61;20391;-66
2021/11/12 11:37:03;0.00;0.00;0.62;0.00;0.00;0.62;3.20;2.30;;;23.30;28.80;;;;;;2253783;61;20440;-65
2021/11/12 11:39:47;0.00;0.00;0.62;0.00;0.00;0.62;3.57;2.60;;;23.30;28.80;;;;;;2253624;61;20376;-65
2021/11/12 11:42:32;0.00;0.00;0.62;0.00;0.00;0.62;3.20;2.30;;;23.40;28.70;;;;;;2253260;61;20500;-64
2021/11/12 11:45:18;0.00;0.00;0.62;0.00;0.00;0.62;3.00;2.10;;;23.40;28.70;;;;;;2254010;61;20359;-65
2021/11/12 11:48:06;0.00;0.00;0.62;0.00;0.00;0.62;3.60;2.60;;;23.40;28.70;;;;;;2253930;61;20704;-65
2021/11/12 11:50:52;0.00;0.00;0.62;0.00;0.00;0.62;2.97;2.30;;;23.50;28.70;;;;;;2250396;61;20375;-65
2021/11/12 11:53:42;0.00;0.00;0.62;0.00;0.00;0.62;2.27;1.80;;;23.50;28.70;;;;;;2253578;61;20763;-65
2021/11/12 11:56:30;0.00;0.00;0.62;0.00;0.00;0.62;3.30;2.13;;;23.50;28.70;;;;;;2253725;61;20384;-65
2021/11/12 11:59:18;0.00;0.00;0.62;0.00;0.00;0.62;2.13;1.80;;;23.50;28.60;;;;;;2253649;61;20463;-64
2021/11/12 12:02:09;0.00;0.00;0.62;0.00;0.00;0.62;1.90;1.43;;;23.60;28.70;;;;;;2253387;61;20392;-65
2021/11/12 12:04:58;0.00;0.00;0.62;0.00;0.00;0.62;2.40;2.07;;;23.60;28.60;;;;;;2253385;61;20368;-64
2021/11/12 12:07:51;0.00;0.00;0.62;0.00;0.00;0.62;2.30;1.90;;;23.60;28.60;;;;;;2253670;61;20383;-66
2021/11/12 12:10:36;0.00;0.00;0.62;0.00;0.00;0.62;2.43;1.83;;;23.60;28.60;;;;;;2250769;61;20359;-64
2021/11/12 12:13:27;0.00;0.00;0.62;0.00;0.00;0.62;2.27;1.70;;;23.60;28.50;;;;;;2253598;61;20452;-65
2021/11/12 12:16:21;0.00;0.00;0.62;0.00;0.00;0.62;2.33;1.80;;;23.70;28.50;;;;;;2253476;61;20450;-64
2021/11/12 12:19:41;0.00;0.00;0.62;0.00;0.00;0.62;2.97;2.10;;;23.70;28.50;;;;;;2253685;61;20373;-65
2021/11/12 13:26:08;0.00;0.00;0.62;0.00;0.00;0.62;1.67;1.30;;;24.30;28.50;;;;;;2253048;61;20705;-64
2021/11/12 13:28:55;0.00;0.00;0.62;0.00;0.00;0.62;1.93;1.43;;;24.30;28.40;;;;;;2253718;61;20589;-64
2021/11/12 13:31:39;0.00;0.00;0.62;0.00;0.00;0.62;1.80;1.50;;;24.30;28.40;;;;;;2253552;61;20571;-65
2021/11/12 13:34:26;0.00;0.00;0.62;0.00;0.00;0.62;2.10;1.57;;;24.40;28.40;;;;;;2253212;61;20359;-64
2021/11/12 13:37:17;0.00;0.00;0.62;0.00;0.00;0.62;2.33;1.73;;;24.40;28.40;;;;;;2253268;61;20371;-66
2021/11/12 13:40:10;0.00;0.00;0.62;0.00;0.00;0.62;1.87;1.50;;;24.40;28.40;;;;;;2253542;61;20529;-64
2021/11/12 13:42:55;0.00;0.00;0.62;0.00;0.00;0.62;3.03;1.50;;;24.50;28.40;;;;;;2254136;61;20462;-65
2021/11/12 13:45:40;0.00;0.00;0.62;0.00;0.00;0.62;1.73;1.30;;;24.50;28.40;;;;;;2253921;61;20363;-65
2021/11/12 13:48:25;0.00;0.00;0.62;0.00;0.00;0.62;2.57;1.90;;;24.60;28.40;;;;;;2253829;61;20418;-66
2021/11/12 13:51:11;0.00;0.00;0.62;0.00;0.00;0.62;1.87;1.33;;;24.60;28.40;;;;;;2251254;61;20739;-67
2021/11/12 13:53:57;0.00;0.00;0.62;0.00;0.00;0.62;2.03;1.60;;;24.60;28.30;;;;;;2254281;61;20398;-64
2021/11/12 13:56:43;0.00;0.00;0.62;0.00;0.00;0.62;2.50;1.43;;;24.60;28.30;;;;;;2253904;61;20448;-65
2021/11/12 13:59:28;0.00;0.00;0.62;0.00;0.00;0.62;2.10;1.50;;;24.60;28.20;;;;;;2253966;61;20407;-66
2021/11/12 14:02:12;0.00;0.00;0.62;0.00;0.00;0.62;1.97;1.47;;;24.60;28.20;;;;;;2253917;61;20384;-65
2021/11/12 14:05:08;0.00;0.00;0.62;0.00;0.00;0.62;2.03;1.47;;;24.70;28.20;;;;;;2254074;61;20424;-66
2021/11/12 14:08:06;0.00;0.00;0.62;0.00;0.00;0.62;2.60;1.80;;;24.70;28.20;;;;;;2253883;61;20348;-66
2021/11/12 14:10:52;0.00;0.00;0.62;0.00;0.00;0.62;2.10;1.57;;;24.70;28.10;;;;;;2253744;61;20364;-66
2021/11/12 14:13:40;0.00;0.00;0.62;0.00;0.00;0.62;2.00;1.20;;;24.70;28.10;;;;;;2253971;61;20387;-66
2021/11/12 14:16:44;0.00;0.00;0.62;0.00;0.00;0.62;1.80;1.40;;;24.70;28.00;;;;;;2251282;61;20360;-62
2021/11/12 14:22:29;0.00;0.00;0.62;0.00;0.00;0.62;2.40;1.90;;;24.80;28.10;;;;;;2253696;61;20422;-61
2021/11/12 14:25:44;0.00;0.00;0.62;0.00;0.00;0.62;2.50;1.87;;;24.80;28.10;;;;;;2253654;61;20404;-61
2021/11/12 14:37:28;0.00;0.00;0.62;0.00;0.00;0.62;1.83;1.40;;;24.80;28.00;;;;;;2253814;61;20363;-60
2021/11/12 14:40:16;0.00;0.00;0.62;0.00;0.00;0.62;1.93;1.47;;;24.80;28.10;;;;;;2253520;61;20443;-60
2021/11/12 14:43:28;0.00;0.00;0.62;0.00;0.00;0.62;2.67;1.63;;;24.80;28.10;;;;;;2254034;61;20439;-60
2021/11/12 14:49:37;0.00;0.00;0.62;0.00;0.00;0.62;3.03;1.60;;;24.80;28.10;;;;;;2253908;61;20432;-62
2021/11/12 14:52:24;0.00;0.00;0.62;0.00;0.00;0.62;2.00;1.70;;;24.80;28.10;;;;;;2253627;61;20419;-61
2021/11/12 14:55:10;0.00;0.00;0.62;0.00;0.00;0.62;2.37;1.73;;;24.80;28.60;;;;;;2253598;61;20755;-60
2021/11/12 14:57:56;0.00;0.00;0.62;0.00;0.00;0.62;2.37;1.70;;;24.80;28.10;;;;;;2253879;61;20636;-61
2021/11/12 15:00:40;0.00;0.00;0.62;0.00;0.00;0.62;2.00;1.60;;;24.80;28.10;;;;;;2253995;61;20422;-60
2021/11/12 15:03:26;0.00;0.00;0.62;0.00;0.00;0.62;1.60;1.30;;;24.80;28.20;;;;;;2253805;61;20423;-60
2021/11/12 15:06:13;0.00;0.00;0.62;0.00;0.00;0.62;2.17;1.70;;;24.80;28.20;;;;;;2250538;61;20371;-62
2021/11/12 15:09:08;0.00;0.00;0.62;0.00;0.00;0.62;2.60;1.67;;;24.80;28.20;;;;;;2253731;61;20360;-63
2021/11/12 15:11:53;0.00;0.00;0.62;0.00;0.00;0.62;2.00;1.53;;;24.80;28.30;;;;;;2253813;61;20427;-61
2021/11/12 15:14:46;0.00;0.00;0.62;0.00;0.00;0.62;1.83;1.60;;;24.80;28.30;;;;;;2253665;61;20391;-63
2021/11/12 15:17:31;0.00;0.00;0.62;0.00;0.00;0.62;2.37;1.60;;;24.80;28.30;;;;;;2253293;61;20368;-62
2021/11/12 15:20:18;0.00;0.00;0.62;0.00;0.00;0.62;2.23;1.87;;;24.80;28.30;;;;;;2253620;61;20751;-60
2021/11/12 15:26:30;0.00;0.00;0.62;0.00;0.00;0.62;1.63;1.27;;;24.70;28.20;;;;;;2244977;61;20436;-63
2021/11/12 15:29:27;0.00;0.00;0.62;0.00;0.00;0.62;2.00;1.50;;;24.80;28.30;;;;;;2253585;61;20392;-67
2021/11/12 15:32:33;0.00;0.00;0.62;0.00;0.00;0.62;1.80;1.47;;;24.70;28.30;;;;;;2253158;61;20431;-62